createdAt,value
2019-05-14T00:00:06.121Z,7.72
2019-05-14T00:01:06.094Z,7.82
2019-05-14T00:02:06.068Z,7.92
2019-05-14T00:03:06.041Z,7.94
2019-05-14T00:04:06.016Z,7.94
2019-05-14T00:05:05.990Z,7.92
2019-05-14T00:06:05.965Z,7.90
2019-05-14T00:07:05.936Z,7.87
2019-05-14T00:08:05.910Z,7.92
2019-05-14T00:09:05.883Z,7.92
2019-05-14T00:10:05.860Z,7.94
2019-05-14T00:11:07.332Z,7.99
2019-05-14T00:12:05.805Z,7.97
2019-05-14T00:13:05.779Z,8.00
2019-05-14T00:14:05.753Z,7.97
2019-05-14T00:15:05.727Z,8.10
2019-05-14T00:16:05.699Z,8.04
2019-05-14T00:17:05.673Z,8.22
2019-05-14T00:18:05.649Z,8.10
2019-05-14T00:19:05.620Z,8.18
2019-05-14T00:20:09.867Z,8.15
2019-05-14T00:21:05.567Z,8.07
2019-05-14T00:22:05.540Z,8.17
2019-05-14T00:23:05.515Z,8.25
2019-05-14T00:24:05.487Z,8.26
2019-05-14T00:25:05.462Z,8.26
2019-05-14T00:26:05.436Z,8.25
2019-05-14T00:27:05.410Z,8.32
2019-05-14T00:28:06.886Z,8.22
2019-05-14T00:29:05.361Z,8.20
2019-05-14T00:30:05.340Z,8.22
2019-05-14T00:31:05.306Z,8.21
2019-05-14T00:32:05.277Z,8.17
2019-05-14T00:33:05.253Z,8.28
2019-05-14T00:34:05.976Z,8.25
2019-05-14T00:35:05.198Z,8.22
2019-05-14T00:36:05.171Z,8.25
2019-05-14T00:37:05.145Z,8.25
2019-05-14T00:38:05.120Z,8.25
2019-05-14T00:39:05.092Z,8.21
2019-05-14T00:40:05.066Z,8.22
2019-05-14T00:41:05.040Z,8.17
2019-05-14T00:42:05.016Z,8.17
2019-05-14T00:43:04.987Z,8.18
2019-05-14T00:44:04.960Z,8.15
2019-05-14T00:45:04.933Z,8.07
2019-05-14T00:46:04.908Z,8.17
2019-05-14T00:47:04.880Z,8.18
2019-05-14T00:48:04.854Z,8.12
2019-05-14T00:49:04.827Z,8.15
2019-05-14T00:50:04.801Z,8.15
2019-05-14T00:51:04.774Z,8.11
2019-05-14T00:52:04.748Z,8.07
2019-05-14T00:53:04.723Z,8.08
2019-05-14T00:54:04.696Z,8.08
2019-05-14T00:55:07.371Z,8.15
2019-05-14T00:56:04.642Z,8.03
2019-05-14T00:57:04.616Z,8.14
2019-05-14T00:58:04.590Z,8.04
2019-05-14T00:59:04.565Z,8.00
2019-05-14T01:00:04.544Z,8.00
2019-05-14T01:01:04.510Z,7.97
2019-05-14T01:02:04.485Z,8.02
2019-05-14T01:03:04.465Z,7.96
2019-05-14T01:04:04.430Z,7.89
2019-05-14T01:05:04.407Z,7.90
2019-05-14T01:06:04.378Z,7.89
2019-05-14T01:07:04.351Z,7.87
2019-05-14T01:08:04.324Z,7.82
2019-05-14T01:09:04.298Z,7.81
2019-05-14T01:10:04.272Z,7.79
2019-05-14T01:11:04.244Z,7.78
2019-05-14T01:12:04.218Z,7.82
2019-05-14T01:13:04.191Z,7.79
2019-05-14T01:14:04.165Z,7.81
2019-05-14T01:15:10.729Z,7.82
2019-05-14T01:16:04.112Z,7.67
2019-05-14T01:17:04.085Z,7.77
2019-05-14T01:18:04.059Z,7.71
2019-05-14T01:19:04.031Z,7.71
2019-05-14T01:20:04.006Z,7.79
2019-05-14T01:21:03.980Z,7.84
2019-05-14T01:22:04.703Z,7.84
2019-05-14T01:23:03.925Z,7.77
2019-05-14T01:24:03.899Z,7.69
2019-05-14T01:25:03.874Z,7.74
2019-05-14T01:26:03.847Z,7.56
2019-05-14T01:27:03.818Z,7.67
2019-05-14T01:28:03.794Z,7.59
2019-05-14T01:29:03.768Z,7.58
2019-05-14T01:30:03.742Z,7.58
2019-05-14T01:31:03.713Z,7.42
2019-05-14T01:32:03.686Z,7.52
2019-05-14T01:33:03.659Z,7.40
2019-05-14T01:34:03.634Z,7.44
2019-05-14T01:35:03.610Z,7.37
2019-05-14T01:36:03.579Z,7.29
2019-05-14T01:37:03.587Z,7.24
2019-05-14T01:38:03.528Z,7.19
2019-05-14T01:39:03.499Z,7.20
2019-05-14T01:40:03.478Z,7.20
2019-05-14T01:41:03.455Z,7.17
2019-05-14T01:42:03.423Z,7.29
2019-05-14T01:43:03.396Z,7.29
2019-05-14T01:44:03.367Z,7.17
2019-05-14T01:45:03.340Z,7.22
2019-05-14T01:46:03.314Z,7.31
2019-05-14T01:47:03.286Z,7.40
2019-05-14T01:48:03.259Z,7.40
2019-05-14T01:49:03.983Z,7.42
2019-05-14T01:50:03.207Z,7.32
2019-05-14T01:51:03.179Z,7.32
2019-05-14T01:52:03.161Z,7.31
2019-05-14T01:53:03.128Z,7.24
2019-05-14T01:54:03.101Z,7.22
2019-05-14T01:55:03.073Z,7.26
2019-05-14T01:56:03.046Z,7.09
2019-05-14T01:57:03.021Z,7.22
2019-05-14T01:58:02.995Z,7.26
2019-05-14T01:59:02.965Z,7.29
2019-05-14T02:00:02.946Z,7.29
2019-05-14T02:01:02.916Z,7.27
2019-05-14T02:02:02.887Z,7.37
2019-05-14T02:03:02.859Z,7.34
2019-05-14T02:04:02.832Z,7.31
2019-05-14T02:05:02.805Z,7.31
2019-05-14T02:06:02.779Z,7.26
2019-05-14T02:07:02.751Z,7.23
2019-05-14T02:08:02.724Z,7.23
2019-05-14T02:09:02.698Z,7.27
2019-05-14T02:10:02.672Z,7.41
2019-05-14T02:11:02.644Z,7.34
2019-05-14T02:12:02.617Z,7.31
2019-05-14T02:13:02.618Z,7.29
2019-05-14T02:14:02.628Z,7.31
2019-05-14T02:15:02.537Z,7.31
2019-05-14T02:16:02.904Z,7.32
2019-05-14T02:17:02.489Z,7.34
2019-05-14T02:18:02.564Z,7.29
2019-05-14T02:19:02.429Z,7.37
2019-05-14T02:20:02.403Z,7.31
2019-05-14T02:21:02.376Z,7.27
2019-05-14T02:22:02.353Z,7.24
2019-05-14T02:23:02.322Z,7.34
2019-05-14T02:24:02.297Z,7.31
2019-05-14T02:25:02.487Z,7.44
2019-05-14T02:26:02.708Z,7.40
2019-05-14T02:27:02.236Z,7.41
2019-05-14T02:28:02.187Z,7.44
2019-05-14T02:29:02.180Z,7.37
2019-05-14T02:30:02.353Z,7.31
2019-05-14T02:31:03.858Z,7.37
2019-05-14T02:32:02.117Z,7.32
2019-05-14T02:33:02.063Z,7.35
2019-05-14T02:34:02.041Z,7.41
2019-05-14T02:35:02.005Z,7.47
2019-05-14T02:36:01.977Z,7.41
2019-05-14T02:37:02.700Z,7.34
2019-05-14T02:38:01.920Z,7.31
2019-05-14T02:39:01.895Z,7.27
2019-05-14T02:40:01.875Z,7.34
2019-05-14T02:41:01.839Z,7.32
2019-05-14T02:42:01.819Z,7.31
2019-05-14T02:43:01.786Z,7.27
2019-05-14T02:44:01.758Z,7.24
2019-05-14T02:45:01.731Z,7.27
2019-05-14T02:46:11.429Z,7.19
2019-05-14T02:47:01.676Z,7.16
2019-05-14T02:48:01.655Z,7.17
2019-05-14T02:49:01.625Z,7.29
2019-05-14T02:50:01.603Z,7.22
2019-05-14T02:51:01.569Z,7.20
2019-05-14T02:52:01.545Z,7.29
2019-05-14T02:53:01.528Z,7.16
2019-05-14T02:54:01.489Z,7.19
2019-05-14T02:55:01.463Z,7.08
2019-05-14T02:56:01.445Z,7.09
2019-05-14T02:57:01.408Z,7.19
2019-05-14T02:58:01.383Z,7.15
2019-05-14T02:59:05.594Z,6.98
2019-05-14T03:00:01.340Z,7.02
2019-05-14T03:01:01.300Z,7.04
2019-05-14T03:02:01.274Z,7.04
2019-05-14T03:03:01.246Z,7.02
2019-05-14T03:04:01.220Z,6.99
2019-05-14T03:05:01.193Z,6.95
2019-05-14T03:06:01.173Z,6.98
2019-05-14T03:07:01.142Z,6.91
2019-05-14T03:08:01.114Z,6.94
2019-05-14T03:09:01.087Z,6.99
2019-05-14T03:10:01.058Z,6.99
2019-05-14T03:11:01.034Z,6.98
2019-05-14T03:12:01.004Z,6.98
2019-05-14T03:13:00.975Z,6.98
2019-05-14T03:14:00.952Z,7.01
2019-05-14T03:15:00.922Z,6.94
2019-05-14T03:16:19.072Z,7.01
2019-05-14T03:17:00.868Z,6.89
2019-05-14T03:18:00.842Z,6.91
2019-05-14T03:19:00.814Z,6.79
2019-05-14T03:20:00.794Z,6.81
2019-05-14T03:21:01.204Z,6.81
2019-05-14T03:22:00.734Z,6.80
2019-05-14T03:23:08.470Z,6.80
2019-05-14T03:24:01.027Z,6.77
2019-05-14T03:25:00.655Z,6.84
2019-05-14T03:26:01.030Z,6.79
2019-05-14T03:27:00.597Z,6.79
2019-05-14T03:28:00.580Z,6.77
2019-05-14T03:29:00.555Z,6.76
2019-05-14T03:30:00.518Z,6.73
2019-05-14T03:31:02.778Z,6.68
2019-05-14T03:32:03.031Z,6.66
2019-05-14T03:33:02.719Z,6.63
2019-05-14T03:34:02.696Z,6.66
2019-05-14T03:35:03.701Z,6.59
2019-05-14T03:36:08.430Z,6.59
2019-05-14T03:37:03.092Z,6.59
2019-05-14T03:38:00.707Z,6.69
2019-05-14T03:39:00.273Z,6.72
2019-05-14T03:40:00.245Z,6.79
2019-05-14T03:41:00.648Z,6.77
2019-05-14T03:42:00.190Z,6.69
2019-05-14T03:43:00.165Z,6.65
2019-05-14T03:44:00.399Z,6.63
2019-05-14T03:45:00.134Z,6.69
2019-05-14T03:46:00.085Z,6.63
2019-05-14T03:47:04.669Z,6.66
2019-05-14T03:48:00.029Z,6.73
2019-05-14T03:49:00.386Z,6.79
2019-05-14T03:49:59.975Z,6.71
2019-05-14T03:51:00.544Z,6.72
2019-05-14T03:52:00.581Z,6.80
2019-05-14T03:52:59.894Z,6.71
2019-05-14T03:54:05.947Z,6.77
2019-05-14T03:55:04.450Z,6.79
2019-05-14T03:56:00.242Z,6.72
2019-05-14T03:57:00.520Z,6.69
2019-05-14T03:57:59.829Z,6.69
2019-05-14T03:59:00.154Z,6.63
2019-05-14T04:00:00.183Z,6.66
2019-05-14T04:01:00.611Z,6.79
2019-05-14T04:02:00.007Z,6.69
2019-05-14T04:03:00.345Z,6.73
2019-05-14T04:03:59.594Z,6.65
2019-05-14T04:05:00.093Z,6.62
2019-05-14T04:05:59.651Z,6.76
2019-05-14T04:07:00.026Z,6.65
2019-05-14T04:08:00.260Z,6.62
2019-05-14T04:09:00.534Z,6.63
2019-05-14T04:09:59.891Z,6.61
2019-05-14T04:10:59.461Z,6.66
2019-05-14T04:11:59.629Z,6.59
2019-05-14T04:13:00.104Z,6.66
2019-05-14T04:14:00.319Z,6.63
2019-05-14T04:14:59.768Z,6.58
2019-05-14T04:16:00.159Z,6.61
2019-05-14T04:17:08.882Z,6.63
2019-05-14T04:17:59.736Z,6.61
2019-05-14T04:18:59.647Z,6.62
2019-05-14T04:20:00.092Z,6.59
2019-05-14T04:20:59.680Z,6.62
2019-05-14T04:21:59.823Z,6.62
2019-05-14T04:23:00.027Z,6.63
2019-05-14T04:23:59.590Z,6.65
2019-05-14T04:24:59.661Z,6.61
2019-05-14T04:26:00.623Z,6.63
2019-05-14T04:27:07.135Z,6.65
2019-05-14T04:27:59.762Z,6.62
2019-05-14T04:29:00.444Z,6.65
2019-05-14T04:29:59.056Z,6.65
2019-05-14T04:30:59.655Z,6.69
2019-05-14T04:32:00.219Z,6.63
2019-05-14T04:32:59.503Z,6.62
2019-05-14T04:33:59.378Z,6.61
2019-05-14T04:34:59.768Z,6.76
2019-05-14T04:35:59.879Z,6.68
2019-05-14T04:36:59.427Z,6.72
2019-05-14T04:37:58.968Z,6.66
2019-05-14T04:39:00.561Z,6.63
2019-05-14T04:39:59.416Z,6.61
2019-05-14T04:40:59.746Z,6.69
2019-05-14T04:42:00.012Z,6.68
2019-05-14T04:42:59.237Z,6.63
2019-05-14T04:43:59.452Z,6.72
2019-05-14T04:45:00.773Z,6.59
2019-05-14T04:45:59.294Z,6.58
2019-05-14T04:46:59.986Z,6.62
2019-05-14T04:48:00.166Z,6.53
2019-05-14T04:48:59.119Z,6.61
2019-05-14T04:49:59.107Z,6.61
2019-05-14T04:51:00.430Z,6.63
2019-05-14T04:51:59.494Z,6.69
2019-05-14T04:52:59.934Z,6.72
2019-05-14T04:53:59.766Z,6.69
2019-05-14T04:54:59.447Z,6.69
2019-05-14T04:56:00.063Z,6.73
2019-05-14T04:56:59.919Z,6.72
2019-05-14T04:57:59.142Z,6.73
2019-05-14T04:58:59.592Z,6.81
2019-05-14T04:59:59.850Z,6.73
2019-05-14T05:01:00.732Z,6.73
2019-05-14T05:02:00.132Z,6.79
2019-05-14T05:02:59.967Z,6.84
2019-05-14T05:03:59.101Z,6.72
2019-05-14T05:04:59.383Z,6.79
2019-05-14T05:05:58.974Z,6.80
2019-05-14T05:07:04.630Z,6.84
2019-05-14T05:07:59.679Z,6.81
2019-05-14T05:09:00.159Z,6.80
2019-05-14T05:09:59.391Z,6.97
2019-05-14T05:10:59.917Z,6.91
2019-05-14T05:11:59.737Z,6.99
2019-05-14T05:12:58.636Z,6.95
2019-05-14T05:13:59.292Z,6.91
2019-05-14T05:14:58.606Z,6.98
2019-05-14T05:15:59.345Z,6.98
2019-05-14T05:16:59.815Z,7.09
2019-05-14T05:17:58.903Z,7.08
2019-05-14T05:18:59.426Z,7.09
2019-05-14T05:19:59.395Z,7.08
2019-05-14T05:20:58.314Z,7.17
2019-05-14T05:21:58.699Z,7.16
2019-05-14T05:22:59.051Z,7.24
2019-05-14T05:23:58.562Z,7.26
2019-05-14T05:24:58.974Z,7.24
2019-05-14T05:25:58.602Z,7.29
2019-05-14T05:26:58.564Z,7.31
2019-05-14T05:27:59.656Z,7.40
2019-05-14T05:29:03.665Z,7.38
2019-05-14T05:29:58.986Z,7.47
2019-05-14T05:30:58.541Z,7.44
2019-05-14T05:31:59.388Z,7.62
2019-05-14T05:32:59.498Z,7.59
2019-05-14T05:33:58.207Z,7.67
2019-05-14T05:34:58.611Z,7.67
2019-05-14T05:35:59.319Z,7.72
2019-05-14T05:36:59.240Z,7.77
2019-05-14T05:37:58.350Z,7.81
2019-05-14T05:38:59.296Z,7.78
2019-05-14T05:39:58.332Z,7.81
2019-05-14T05:40:59.959Z,7.87
2019-05-14T05:41:58.477Z,7.87
2019-05-14T05:42:58.063Z,7.96
2019-05-14T05:43:58.943Z,7.93
2019-05-14T05:44:58.750Z,7.96
2019-05-14T05:45:59.049Z,7.93
2019-05-14T05:46:59.459Z,8.07
2019-05-14T05:48:01.023Z,7.94
2019-05-14T05:48:58.783Z,8.07
2019-05-14T05:49:58.145Z,8.02
2019-05-14T05:50:58.837Z,8.11
2019-05-14T05:51:58.896Z,8.10
2019-05-14T05:52:58.556Z,8.08
2019-05-14T05:53:58.656Z,8.08
2019-05-14T05:54:58.434Z,8.04
2019-05-14T05:55:59.000Z,8.22
2019-05-14T05:56:58.112Z,8.15
2019-05-14T05:57:58.621Z,8.25
2019-05-14T05:58:56.472Z,8.26
2019-05-14T05:59:58.745Z,8.29
2019-05-14T06:00:58.976Z,8.39
2019-05-14T06:01:58.692Z,8.40
2019-05-14T06:02:56.366Z,8.33
2019-05-14T06:03:58.356Z,8.40
2019-05-14T06:04:58.503Z,8.55
2019-05-14T06:05:56.294Z,8.53
2019-05-14T06:06:59.077Z,8.54
2019-05-14T06:07:58.837Z,8.53
2019-05-14T06:08:58.420Z,8.55
2019-05-14T06:09:58.646Z,8.63
2019-05-14T06:10:56.153Z,8.66
2019-05-14T06:11:56.127Z,8.71
2019-05-14T06:12:58.408Z,8.73
2019-05-14T06:13:56.074Z,8.76
2019-05-14T06:14:57.910Z,8.73
2019-05-14T06:15:58.858Z,8.79
2019-05-14T06:16:55.995Z,8.76
2019-05-14T06:18:11.500Z,8.81
2019-05-14T06:18:55.941Z,8.83
2019-05-14T06:19:55.915Z,8.87
2019-05-14T06:20:58.337Z,8.88
2019-05-14T06:21:55.864Z,9.05
2019-05-14T06:22:55.836Z,9.02
2019-05-14T06:23:58.074Z,9.12
2019-05-14T06:24:55.784Z,9.12
2019-05-14T06:25:55.758Z,9.15
2019-05-14T06:26:55.732Z,9.20
2019-05-14T06:27:55.705Z,9.20
2019-05-14T06:28:55.680Z,9.15
2019-05-14T06:29:58.118Z,9.09
2019-05-14T06:30:55.627Z,9.21
2019-05-14T06:31:55.601Z,9.27
2019-05-14T06:32:55.576Z,9.21
2019-05-14T06:33:55.550Z,9.18
2019-05-14T06:34:55.527Z,9.25
2019-05-14T06:35:55.497Z,9.30
2019-05-14T06:36:55.471Z,9.45
2019-05-14T06:37:55.445Z,9.31
2019-05-14T06:38:55.417Z,9.35
2019-05-14T06:39:55.392Z,9.46
2019-05-14T06:40:55.367Z,9.60
2019-05-14T06:41:55.340Z,9.64
2019-05-14T06:42:55.313Z,9.64
2019-05-14T06:43:55.289Z,9.68
2019-05-14T06:44:55.263Z,9.63
2019-05-14T06:45:55.237Z,9.60
2019-05-14T06:46:55.211Z,9.58
2019-05-14T06:47:55.185Z,9.68
2019-05-14T06:48:55.161Z,9.58
2019-05-14T06:49:55.134Z,9.60
2019-05-14T06:50:55.106Z,9.49
2019-05-14T06:51:55.082Z,9.64
2019-05-14T06:52:55.056Z,9.83
2019-05-14T06:53:55.030Z,9.85
2019-05-14T06:54:55.005Z,9.81
2019-05-14T06:55:54.978Z,9.89
2019-05-14T06:56:54.953Z,10.00
2019-05-14T06:57:54.927Z,9.97
2019-05-14T06:58:54.900Z,10.09
2019-05-14T06:59:54.875Z,10.10
2019-05-14T07:00:54.850Z,10.22
2019-05-14T07:01:54.828Z,10.07
2019-05-14T07:02:54.797Z,10.07
2019-05-14T07:03:54.773Z,10.15
2019-05-14T07:04:54.749Z,10.19
2019-05-14T07:05:54.728Z,10.25
2019-05-14T07:06:54.696Z,10.17
2019-05-14T07:07:54.671Z,10.14
2019-05-14T07:08:54.646Z,10.17
2019-05-14T07:09:54.620Z,10.19
2019-05-14T07:10:54.596Z,9.89
2019-05-14T07:11:54.569Z,10.04
2019-05-14T07:12:54.544Z,10.10
2019-05-14T07:13:54.519Z,10.15
2019-05-14T07:14:54.492Z,10.26
2019-05-14T07:15:54.467Z,10.25
2019-05-14T07:16:54.444Z,10.42
2019-05-14T07:17:54.422Z,10.46
2019-05-14T07:18:54.496Z,10.40
2019-05-14T07:19:54.365Z,10.47
2019-05-14T07:20:54.340Z,10.51
2019-05-14T07:21:54.315Z,10.63
2019-05-14T07:22:54.289Z,10.65
2019-05-14T07:23:54.264Z,10.83
2019-05-14T07:24:54.242Z,10.98
2019-05-14T07:25:54.214Z,10.94
2019-05-14T07:26:54.188Z,10.98
2019-05-14T07:27:54.163Z,10.74
2019-05-14T07:28:54.138Z,10.78
2019-05-14T07:29:54.113Z,10.74
2019-05-14T07:30:54.087Z,10.71
2019-05-14T07:31:54.062Z,10.70
2019-05-14T07:32:54.038Z,10.78
2019-05-14T07:33:54.012Z,10.80
2019-05-14T07:34:53.994Z,10.94
2019-05-14T07:35:53.961Z,10.99
2019-05-14T07:36:53.946Z,11.11
2019-05-14T07:37:53.914Z,10.89
2019-05-14T07:38:56.502Z,10.96
2019-05-14T07:39:53.861Z,11.09
2019-05-14T07:40:53.836Z,11.25
2019-05-14T07:41:53.811Z,11.21
2019-05-14T07:42:53.785Z,11.19
2019-05-14T07:43:53.760Z,11.07
2019-05-14T07:44:53.735Z,10.95
2019-05-14T07:45:53.713Z,11.07
2019-05-14T07:46:53.685Z,11.14
2019-05-14T07:47:53.661Z,11.11
2019-05-14T07:49:04.314Z,11.21
2019-05-14T07:49:53.613Z,11.24
2019-05-14T07:50:53.586Z,11.14
2019-05-14T07:51:53.561Z,11.21
2019-05-14T07:52:55.804Z,11.07
2019-05-14T07:53:53.513Z,11.14
2019-05-14T07:54:53.486Z,11.32
2019-05-14T07:55:53.461Z,11.35
2019-05-14T07:56:53.480Z,11.43
2019-05-14T07:57:53.412Z,11.43
2019-05-14T07:58:58.450Z,11.54
2019-05-14T07:59:53.361Z,11.53
2019-05-14T08:00:53.337Z,11.61
2019-05-14T08:01:53.314Z,11.53
2019-05-14T08:02:53.288Z,11.43
2019-05-14T08:03:53.262Z,11.52
2019-05-14T08:04:55.489Z,11.56
2019-05-14T08:05:53.213Z,11.68
2019-05-14T08:06:53.187Z,11.61
2019-05-14T08:07:53.163Z,11.59
2019-05-14T08:08:53.139Z,11.65
2019-05-14T08:09:53.114Z,11.65
2019-05-14T08:10:53.089Z,11.62
2019-05-14T08:11:53.064Z,11.52
2019-05-14T08:12:53.044Z,11.61
2019-05-14T08:13:53.015Z,11.72
2019-05-14T08:15:10.945Z,11.77
2019-05-14T08:15:52.965Z,11.77
2019-05-14T08:16:52.946Z,11.89
2019-05-14T08:17:52.918Z,11.80
2019-05-14T08:18:52.891Z,11.86
2019-05-14T08:19:52.866Z,11.85
2019-05-14T08:20:52.842Z,11.77
2019-05-14T08:21:52.817Z,11.90
2019-05-14T08:22:52.793Z,11.96
2019-05-14T08:23:52.768Z,12.09
2019-05-14T08:24:52.744Z,12.16
2019-05-14T08:25:52.719Z,12.23
2019-05-14T08:26:52.696Z,12.26
2019-05-14T08:27:52.670Z,12.27
2019-05-14T08:28:52.646Z,12.37
2019-05-14T08:29:52.621Z,12.48
2019-05-14T08:30:52.596Z,12.33
2019-05-14T08:31:52.573Z,12.51
2019-05-14T08:32:52.547Z,12.54
2019-05-14T08:33:52.524Z,12.74
2019-05-14T08:34:52.497Z,12.64
2019-05-14T08:35:52.475Z,12.69
2019-05-14T08:36:52.451Z,12.74
2019-05-14T08:38:04.602Z,12.64
2019-05-14T08:38:52.402Z,12.74
2019-05-14T08:39:52.378Z,12.74
2019-05-14T08:40:52.360Z,12.67
2019-05-14T08:41:59.528Z,12.62
2019-05-14T08:42:52.304Z,12.66
2019-05-14T08:43:52.281Z,12.81
2019-05-14T08:44:52.256Z,12.64
2019-05-14T08:45:52.233Z,12.75
2019-05-14T08:46:52.210Z,12.62
2019-05-14T08:47:52.187Z,12.60
2019-05-14T08:48:52.168Z,12.54
2019-05-14T08:49:52.232Z,12.71
2019-05-14T08:50:52.111Z,12.87
2019-05-14T08:51:52.087Z,12.75
2019-05-14T08:52:52.064Z,12.89
2019-05-14T08:53:52.054Z,12.96
2019-05-14T08:55:05.600Z,12.96
2019-05-14T08:55:51.991Z,13.07
2019-05-14T08:56:51.982Z,13.03
2019-05-14T08:57:52.017Z,12.93
2019-05-14T08:58:51.920Z,13.03
2019-05-14T08:59:51.897Z,13.09
2019-05-14T09:00:51.878Z,13.02
2019-05-14T09:02:01.721Z,13.24
2019-05-14T09:02:51.824Z,13.47
2019-05-14T09:03:51.804Z,13.51
2019-05-14T09:04:54.703Z,13.49
2019-05-14T09:05:51.755Z,13.62
2019-05-14T09:06:51.729Z,13.73
2019-05-14T09:07:52.456Z,13.74
2019-05-14T09:08:51.682Z,13.61
2019-05-14T09:09:51.659Z,13.43
2019-05-14T09:10:51.650Z,13.43
2019-05-14T09:11:51.611Z,13.22
2019-05-14T09:12:51.587Z,13.17
2019-05-14T09:13:51.570Z,13.14
2019-05-14T09:14:51.541Z,13.15
2019-05-14T09:15:51.517Z,13.12
2019-05-14T09:16:51.605Z,13.12
2019-05-14T09:17:51.470Z,13.15
2019-05-14T09:18:51.446Z,13.33
2019-05-14T09:20:02.465Z,13.20
2019-05-14T09:20:51.399Z,13.25
2019-05-14T09:21:51.380Z,13.44
2019-05-14T09:22:51.353Z,13.49
2019-05-14T09:23:51.327Z,13.43
2019-05-14T09:24:51.313Z,13.46
2019-05-14T09:25:53.409Z,13.61
2019-05-14T09:26:51.258Z,13.55
2019-05-14T09:27:51.238Z,13.70
2019-05-14T09:28:51.211Z,13.69
2019-05-14T09:29:51.188Z,13.61
2019-05-14T09:30:51.165Z,13.74
2019-05-14T09:31:51.142Z,13.76
2019-05-14T09:32:51.118Z,13.77
2019-05-14T09:33:51.118Z,13.79
2019-05-14T09:34:51.071Z,13.73
2019-05-14T09:36:07.997Z,13.61
2019-05-14T09:36:51.027Z,13.58
2019-05-14T09:37:51.568Z,13.56
2019-05-14T09:38:50.980Z,13.63
2019-05-14T09:39:50.955Z,13.58
2019-05-14T09:41:07.168Z,13.70
2019-05-14T09:41:50.909Z,13.63
2019-05-14T09:42:50.884Z,13.67
2019-05-14T09:43:50.861Z,13.43
2019-05-14T09:44:50.838Z,13.47
2019-05-14T09:45:50.815Z,13.52
2019-05-14T09:46:50.791Z,13.69
2019-05-14T09:47:50.907Z,13.73
2019-05-14T09:48:50.745Z,13.40
2019-05-14T09:49:50.723Z,13.58
2019-05-14T09:50:51.449Z,13.70
2019-05-14T09:51:50.679Z,13.71
2019-05-14T09:52:50.655Z,13.76
2019-05-14T09:53:50.631Z,13.94
2019-05-14T09:54:50.605Z,14.20
2019-05-14T09:55:50.581Z,13.87
2019-05-14T09:56:50.560Z,13.59
2019-05-14T09:57:50.538Z,13.71
2019-05-14T09:58:50.512Z,13.98
2019-05-14T09:59:50.489Z,14.14
2019-05-14T10:00:50.471Z,13.99
2019-05-14T10:01:51.197Z,13.89
2019-05-14T10:02:50.420Z,13.59
2019-05-14T10:03:50.400Z,13.43
2019-05-14T10:04:50.374Z,13.43
2019-05-14T10:05:50.352Z,13.61
2019-05-14T10:06:50.328Z,13.79
2019-05-14T10:07:50.305Z,13.74
2019-05-14T10:08:50.283Z,14.16
2019-05-14T10:09:50.259Z,14.12
2019-05-14T10:10:50.238Z,14.19
2019-05-14T10:11:50.213Z,14.13
2019-05-14T10:12:56.415Z,13.94
2019-05-14T10:13:50.167Z,13.84
2019-05-14T10:14:50.143Z,13.92
2019-05-14T10:15:50.121Z,13.96
2019-05-14T10:16:50.099Z,13.92
2019-05-14T10:17:50.226Z,13.91
2019-05-14T10:18:52.815Z,14.09
2019-05-14T10:19:50.140Z,14.19
2019-05-14T10:20:50.015Z,14.14
2019-05-14T10:21:49.983Z,13.94
2019-05-14T10:22:54.465Z,14.02
2019-05-14T10:23:49.941Z,14.04
2019-05-14T10:24:49.914Z,14.09
2019-05-14T10:25:49.897Z,13.94
2019-05-14T10:26:49.893Z,14.10
2019-05-14T10:27:49.846Z,14.10
2019-05-14T10:28:51.326Z,14.02
2019-05-14T10:29:49.801Z,14.04
2019-05-14T10:30:49.777Z,14.19
2019-05-14T10:31:49.755Z,14.27
2019-05-14T10:32:49.737Z,14.12
2019-05-14T10:33:49.710Z,14.14
2019-05-14T10:34:51.189Z,14.01
2019-05-14T10:35:49.664Z,13.98
2019-05-14T10:36:49.642Z,13.84
2019-05-14T10:37:49.619Z,13.74
2019-05-14T10:38:49.597Z,13.99
2019-05-14T10:39:49.573Z,13.98
2019-05-14T10:40:49.551Z,14.17
2019-05-14T10:41:49.528Z,14.24
2019-05-14T10:42:49.631Z,14.32
2019-05-14T10:43:49.887Z,14.28
2019-05-14T10:44:49.460Z,14.62
2019-05-14T10:45:49.583Z,14.87
2019-05-14T10:46:49.417Z,14.80
2019-05-14T10:47:49.571Z,14.65
2019-05-14T10:48:49.371Z,14.71
2019-05-14T10:49:49.348Z,14.62
2019-05-14T10:50:57.301Z,14.57
2019-05-14T10:51:49.302Z,14.57
2019-05-14T10:52:49.285Z,14.46
2019-05-14T10:53:49.359Z,14.50
2019-05-14T10:54:55.849Z,14.47
2019-05-14T10:55:49.214Z,14.71
2019-05-14T10:56:49.942Z,14.80
2019-05-14T10:57:54.166Z,14.69
2019-05-14T10:58:49.304Z,14.60
2019-05-14T10:59:49.125Z,14.74
2019-05-14T11:00:49.605Z,14.94
2019-05-14T11:01:49.101Z,14.98
2019-05-14T11:02:49.274Z,14.90
2019-05-14T11:03:49.035Z,14.72
2019-05-14T11:04:49.016Z,14.60
2019-05-14T11:05:48.999Z,14.50
2019-05-14T11:06:49.218Z,14.52
2019-05-14T11:07:48.949Z,14.72
2019-05-14T11:08:49.443Z,14.75
2019-05-14T11:09:48.904Z,14.47
2019-05-14T11:10:49.768Z,14.52
2019-05-14T11:11:48.861Z,14.34
2019-05-14T11:12:50.660Z,14.10
2019-05-14T11:13:48.816Z,13.98
2019-05-14T11:14:49.407Z,13.74
2019-05-14T11:15:48.922Z,13.71
2019-05-14T11:16:48.751Z,14.01
2019-05-14T11:17:48.941Z,14.13
2019-05-14T11:18:49.679Z,14.17
2019-05-14T11:19:48.683Z,14.37
2019-05-14T11:20:51.499Z,14.61
2019-05-14T11:21:48.639Z,14.88
2019-05-14T11:22:49.241Z,14.90
2019-05-14T11:23:49.218Z,14.99
2019-05-14T11:24:49.128Z,14.93
2019-05-14T11:25:48.820Z,14.57
2019-05-14T11:26:49.003Z,14.69
2019-05-14T11:27:49.288Z,14.54
2019-05-14T11:28:49.122Z,14.56
2019-05-14T11:29:49.159Z,14.50
2019-05-14T11:30:49.451Z,14.46
2019-05-14T11:31:48.722Z,14.50
2019-05-14T11:32:49.253Z,14.50
2019-05-14T11:33:49.786Z,14.61
2019-05-14T11:34:49.857Z,14.53
2019-05-14T11:35:48.333Z,14.29
2019-05-14T11:36:49.765Z,14.28
2019-05-14T11:37:48.290Z,14.32
2019-05-14T11:38:50.828Z,14.20
2019-05-14T11:39:48.824Z,14.25
2019-05-14T11:40:49.551Z,14.37
2019-05-14T11:41:49.255Z,14.57
2019-05-14T11:42:49.508Z,14.56
2019-05-14T11:43:49.223Z,14.69
2019-05-14T11:44:48.837Z,14.91
2019-05-14T11:45:48.647Z,14.98
2019-05-14T11:46:57.171Z,14.98
2019-05-14T11:47:48.870Z,14.86
2019-05-14T11:48:49.048Z,14.81
2019-05-14T11:49:49.260Z,14.80
2019-05-14T11:50:49.165Z,14.67
2019-05-14T11:52:01.003Z,14.75
2019-05-14T11:52:48.471Z,14.91
2019-05-14T11:53:49.401Z,14.87
2019-05-14T11:54:49.371Z,14.86
2019-05-14T11:55:50.230Z,14.56
2019-05-14T11:56:48.630Z,14.32
2019-05-14T11:57:48.559Z,14.50
2019-05-14T11:58:47.833Z,14.32
2019-05-14T11:59:47.822Z,14.32
2019-05-14T12:00:47.793Z,14.32
2019-05-14T12:01:49.351Z,14.24
2019-05-14T12:02:47.748Z,14.43
2019-05-14T12:03:50.308Z,14.42
2019-05-14T12:04:47.703Z,14.54
2019-05-14T12:05:49.490Z,14.74
2019-05-14T12:06:47.661Z,14.98
2019-05-14T12:07:47.642Z,14.83
2019-05-14T12:08:47.619Z,15.05
2019-05-14T12:09:47.597Z,15.05
2019-05-14T12:10:47.575Z,15.20
2019-05-14T12:11:47.555Z,14.99
2019-05-14T12:12:48.922Z,15.11
2019-05-14T12:13:48.763Z,15.01
2019-05-14T12:14:48.455Z,14.91
2019-05-14T12:15:48.567Z,14.87
2019-05-14T12:16:49.365Z,14.94
2019-05-14T12:17:50.961Z,15.21
2019-05-14T12:18:48.329Z,15.24
2019-05-14T12:19:48.496Z,15.31
2019-05-14T12:20:49.718Z,15.03
2019-05-14T12:22:02.218Z,15.05
2019-05-14T12:22:48.717Z,14.95
2019-05-14T12:23:49.553Z,14.80
2019-05-14T12:24:49.202Z,14.68
2019-05-14T12:25:49.085Z,14.83
2019-05-14T12:26:49.079Z,15.05
2019-05-14T12:27:49.637Z,15.15
2019-05-14T12:28:49.457Z,15.39
2019-05-14T12:29:49.775Z,15.59
2019-05-14T12:30:48.921Z,15.74
2019-05-14T12:31:50.493Z,15.79
2019-05-14T12:32:49.326Z,15.49
2019-05-14T12:33:48.834Z,15.54
2019-05-14T12:34:48.875Z,15.35
2019-05-14T12:35:49.395Z,15.20
2019-05-14T12:36:49.257Z,15.20
2019-05-14T12:37:46.999Z,15.15
2019-05-14T12:38:46.978Z,15.15
2019-05-14T12:39:46.957Z,15.21
2019-05-14T12:40:46.936Z,15.20
2019-05-14T12:41:48.868Z,15.20
2019-05-14T12:42:49.632Z,15.03
2019-05-14T12:43:46.873Z,14.90
2019-05-14T12:44:46.861Z,14.88
2019-05-14T12:45:46.832Z,14.87
2019-05-14T12:46:48.998Z,14.91
2019-05-14T12:47:49.808Z,15.01
2019-05-14T12:48:49.266Z,15.09
2019-05-14T12:49:48.329Z,15.26
2019-05-14T12:50:48.832Z,15.33
2019-05-14T12:51:49.175Z,15.30
2019-05-14T12:52:48.535Z,15.46
2019-05-14T12:53:48.804Z,15.41
2019-05-14T12:54:46.645Z,15.30
2019-05-14T12:55:48.648Z,15.26
2019-05-14T12:56:49.431Z,15.43
2019-05-14T12:57:48.554Z,15.63
2019-05-14T12:58:48.791Z,15.68
2019-05-14T12:59:48.621Z,15.75
2019-05-14T13:00:48.688Z,16.04
2019-05-14T13:01:49.044Z,16.26
2019-05-14T13:02:46.474Z,16.03
2019-05-14T13:03:48.529Z,15.97
2019-05-14T13:04:48.505Z,15.42
2019-05-14T13:05:48.909Z,15.64